Time;durP1;ratioP1;P1;durP2;ratioP2;P2;SDS_P1;SDS_P2;PMS_P1;PMS_P2;Temp;Humidity;BMP_temperature;BMP_pressure;BME280_temperature;BME280_humidity;BME280_pressure;Samples;Min_cycle;Max_cycle;Signal;HPM_P1;HPM_P2
2023/10/13 00:00:25;;;;;;;104.57;45.13;;;14.50;99.90;;;;;;4997919;28;20510;-75
2023/10/13 00:02:54;;;;;;;87.67;40.70;;;14.50;99.90;;;;;;5015853;28;20046;-75
2023/10/13 00:05:20;;;;;;;98.17;43.80;;;14.50;99.90;;;;;;5015369;28;20037;-75
2023/10/13 00:07:46;;;;;;;99.57;44.87;;;14.50;99.90;;;;;;4998021;28;20061;-75
2023/10/13 00:10:12;;;;;;;97.57;46.37;;;14.60;99.90;;;;;;5015219;28;20053;-75
2023/10/13 00:12:38;;;;;;;104.30;44.70;;;14.60;99.90;;;;;;4997975;28;20046;-75
2023/10/13 00:15:07;;;;;;;93.47;42.33;;;14.60;99.90;;;;;;4981449;28;20108;-75
2023/10/13 00:17:32;;;;;;;105.90;43.77;;;14.60;99.90;;;;;;4998028;28;20089;-75
2023/10/13 00:20:00;;;;;;;85.67;40.10;;;14.70;99.90;;;;;;5015041;28;20159;-75
2023/10/13 00:22:27;;;;;;;87.23;39.33;;;14.70;99.90;;;;;;4997758;28;20148;-75
2023/10/13 00:24:58;;;;;;;93.60;41.00;;;14.80;99.90;;;;;;4997486;28;20041;-75
2023/10/13 00:27:36;;;;;;;90.37;42.37;;;14.80;99.90;;;;;;4997607;28;20062;-75
2023/10/13 00:30:32;;;;;;;89.40;39.53;;;14.80;99.90;;;;;;4997948;28;20212;-75
2023/10/13 00:32:59;;;;;;;92.30;40.67;;;14.80;99.90;;;;;;5015292;28;20049;-75
2023/10/13 00:35:35;;;;;;;87.30;38.13;;;14.90;99.90;;;;;;5014739;28;20041;-75
2023/10/13 00:38:12;;;;;;;82.40;38.03;;;15.00;99.90;;;;;;4998229;28;20054;-75
2023/10/13 00:40:42;;;;;;;85.47;37.33;;;15.00;99.90;;;;;;5014999;28;20077;-75
2023/10/13 00:45:57;;;;;;;79.10;35.57;;;15.10;99.90;;;;;;5014472;28;20049;-75
2023/10/13 00:48:34;;;;;;;77.20;35.47;;;15.10;99.90;;;;;;4997183;28;20042;-75
2023/10/13 00:51:13;;;;;;;81.27;35.77;;;15.10;99.90;;;;;;4997366;28;20050;-75
2023/10/13 00:53:44;;;;;;;79.80;36.87;;;15.20;99.90;;;;;;4997078;28;20046;-75
2023/10/13 00:56:18;;;;;;;81.57;36.90;;;15.20;99.90;;;;;;4982159;28;20133;-75
2023/10/13 00:58:50;;;;;;;77.63;33.92;;;15.20;99.90;;;;;;5015131;28;20054;-75
2023/10/13 01:01:21;;;;;;;68.63;33.00;;;15.20;99.90;;;;;;4997544;28;20045;-75
2023/10/13 01:03:55;;;;;;;71.93;33.30;;;15.20;99.90;;;;;;4996457;28;20061;-75
2023/10/13 01:06:25;;;;;;;61.93;29.53;;;15.30;99.90;;;;;;5014695;28;20053;-75
2023/10/13 01:09:13;;;;;;;57.70;28.63;;;15.40;99.90;;;;;;4997122;28;20103;-75
2023/10/13 01:11:42;;;;;;;54.70;27.97;;;15.40;99.90;;;;;;4997051;28;20136;-75
2023/10/13 01:14:12;;;;;;;51.90;27.33;;;15.40;99.90;;;;;;5014725;28;20124;-76
2023/10/13 01:16:43;;;;;;;46.53;23.80;;;15.40;99.90;;;;;;4996712;28;20505;-75
2023/10/13 01:19:19;;;;;;;48.33;24.10;;;15.50;99.90;;;;;;4996818;28;20164;-75
2023/10/13 01:21:47;;;;;;;45.23;23.70;;;15.50;99.90;;;;;;4996464;28;20045;-75
2023/10/13 01:24:17;;;;;;;46.47;23.93;;;15.50;99.90;;;;;;4980393;28;20398;-75
2023/10/13 01:26:44;;;;;;;41.07;22.53;;;15.60;99.90;;;;;;4980562;28;20458;-75
2023/10/13 01:29:13;;;;;;;44.43;21.50;;;15.60;99.90;;;;;;4995993;28;20081;-75
2023/10/13 01:31:46;;;;;;;43.73;21.10;;;15.60;99.90;;;;;;5013759;28;20084;-75
2023/10/13 01:34:21;;;;;;;39.60;21.33;;;15.70;99.90;;;;;;4996380;28;20129;-75
2023/10/13 01:36:55;;;;;;;42.17;21.57;;;15.70;99.90;;;;;;4997129;28;20364;-75
2023/10/13 01:39:26;;;;;;;38.57;20.83;;;15.70;99.90;;;;;;5013667;28;20049;-75
2023/10/13 01:42:01;;;;;;;40.97;21.17;;;15.70;99.90;;;;;;4996797;28;20060;-75
2023/10/13 01:44:30;;;;;;;38.80;20.45;;;15.70;99.90;;;;;;4996552;28;20045;-75
2023/10/13 01:46:59;;;;;;;34.67;19.90;;;15.70;99.90;;;;;;5013637;28;20093;-75
2023/10/13 01:49:26;;;;;;;33.90;19.33;;;15.80;99.90;;;;;;5013554;28;20060;-75
2023/10/13 01:51:52;;;;;;;33.30;18.30;;;15.80;99.90;;;;;;4980178;28;20095;-75
2023/10/13 01:54:18;;;;;;;34.73;18.73;;;15.80;99.90;;;;;;4996472;28;20054;-75
2023/10/13 01:56:43;;;;;;;34.43;19.77;;;15.80;99.90;;;;;;4995988;28;20046;-75
2023/10/13 01:59:11;;;;;;;40.50;20.63;;;15.80;99.90;;;;;;5013123;28;20145;-75
2023/10/13 02:01:37;;;;;;;44.50;20.77;;;15.80;99.90;;;;;;5013420;28;20457;-76
2023/10/13 02:04:04;;;;;;;36.60;21.13;;;15.80;99.90;;;;;;5013471;28;20068;-75
2023/10/13 02:06:33;;;;;;;40.53;21.80;;;15.80;99.90;;;;;;4996323;28;20038;-75
2023/10/13 02:09:43;;;;;;;37.90;21.17;;;15.80;99.90;;;;;;5013344;28;20386;-75
2023/10/13 02:11:54;;;;;;;41.57;22.60;;;15.80;99.90;;;;;;5004980;28;20050;-75
2023/10/13 02:14:22;;;;;;;47.03;23.97;;;15.80;99.90;;;;;;4999046;28;20117;-75
2023/10/13 02:16:50;;;;;;;46.03;24.73;;;15.80;99.90;;;;;;4999782;28;20068;-75
2023/10/13 02:19:19;;;;;;;50.50;23.07;;;15.80;99.90;;;;;;5000531;28;20500;-75
2023/10/13 02:21:45;;;;;;;45.57;22.67;;;15.90;99.90;;;;;;5016928;28;20362;-75
2023/10/13 02:24:18;;;;;;;46.57;24.77;;;15.90;99.90;;;;;;5017070;28;20130;-75
2023/10/13 02:26:44;;;;;;;47.27;25.17;;;15.80;99.90;;;;;;5017469;28;20058;-75
2023/10/13 02:29:12;;;;;;;45.67;26.83;;;15.90;99.90;;;;;;4999803;28;20128;-75
2023/10/13 02:31:39;;;;;;;45.60;25.40;;;15.90;99.90;;;;;;5000266;28;20061;-75
2023/10/13 02:34:08;;;;;;;43.80;24.53;;;15.90;99.90;;;;;;4999878;28;20046;-75
2023/10/13 02:36:48;;;;;;;46.07;26.20;;;15.90;99.90;;;;;;5017138;28;20171;-75
2023/10/13 02:39:24;;;;;;;44.20;24.53;;;15.90;99.90;;;;;;5000295;28;20450;-75
2023/10/13 02:41:50;;;;;;;45.53;25.23;;;15.90;99.90;;;;;;4999682;28;20125;-74
2023/10/13 02:44:31;;;;;;;52.47;25.87;;;15.90;99.90;;;;;;5016799;28;20438;-74
2023/10/13 02:46:57;;;;;;;58.17;27.17;;;15.90;99.90;;;;;;4999255;28;20085;-74
2023/10/13 02:49:27;;;;;;;59.23;30.67;;;15.90;99.90;;;;;;4999266;28;20053;-74
2023/10/13 02:51:59;;;;;;;58.63;30.17;;;16.00;99.90;;;;;;5016579;28;20141;-74
2023/10/13 02:54:31;;;;;;;63.60;30.63;;;16.00;99.90;;;;;;5017184;28;20053;-75
2023/10/13 02:56:57;;;;;;;63.83;32.17;;;16.00;99.90;;;;;;5016833;28;20053;-74
2023/10/13 03:00:12;;;;;;;70.50;33.10;;;16.00;99.90;;;;;;5016383;28;20093;-74
2023/10/13 03:02:29;;;;;;;82.87;33.87;;;16.00;99.90;;;;;;5013044;28;20541;-74
2023/10/13 03:05:09;;;;;;;69.43;33.00;;;16.00;99.90;;;;;;4999850;28;20075;-73
2023/10/13 03:07:36;;;;;;;77.57;35.40;;;16.00;99.90;;;;;;5016370;28;20053;-74
2023/10/13 03:10:10;;;;;;;68.20;33.33;;;16.00;99.90;;;;;;5016031;28;20538;-74
2023/10/13 03:12:37;;;;;;;63.95;34.17;;;16.00;99.90;;;;;;5016258;28;20483;-75
2023/10/13 03:15:29;;;;;;;67.60;32.57;;;16.00;99.90;;;;;;5016488;28;20049;-75
2023/10/13 03:17:58;;;;;;;69.87;32.37;;;16.00;99.90;;;;;;5016486;28;20052;-74
2023/10/13 03:20:31;;;;;;;63.23;32.40;;;16.00;99.90;;;;;;4999310;28;20049;-75
2023/10/13 03:22:57;;;;;;;53.77;29.37;;;16.00;99.90;;;;;;4999187;28;20077;-77
2023/10/13 03:25:24;;;;;;;47.93;28.70;;;16.00;99.90;;;;;;4998624;28;20111;-75
2023/10/13 03:30:17;;;;;;;41.13;23.97;;;16.00;99.90;;;;;;5015889;28;20049;-75
2023/10/13 03:32:48;;;;;;;43.87;25.23;;;16.00;99.90;;;;;;4983189;28;20050;-74
2023/10/13 03:35:23;;;;;;;45.13;24.47;;;16.00;99.90;;;;;;5016065;28;20498;-75
2023/10/13 03:37:52;;;;;;;49.43;26.40;;;16.00;99.90;;;;;;4998841;28;20057;-74
2023/10/13 03:45:39;;;;;;;43.63;22.83;;;16.00;99.90;;;;;;4999163;28;20089;-75
2023/10/13 03:48:09;;;;;;;46.03;22.37;;;16.00;99.90;;;;;;5016519;28;20083;-75
2023/10/13 03:50:48;;;;;;;42.07;22.40;;;16.00;99.90;;;;;;4982267;28;20080;-75
2023/10/13 03:53:14;;;;;;;37.40;21.27;;;16.00;99.90;;;;;;5015532;28;20561;-76
2023/10/13 03:55:47;;;;;;;40.27;22.77;;;16.00;99.90;;;;;;5015522;28;20049;-75
2023/10/13 03:58:14;;;;;;;43.43;24.93;;;16.00;99.90;;;;;;5015577;28;20054;-75
2023/10/13 04:00:42;;;;;;;49.53;25.97;;;16.00;99.90;;;;;;5015431;28;20057;-75
2023/10/13 04:21:57;;;;;;;50.00;24.63;;;16.10;99.90;;;;;;4998300;28;20050;-76
2023/10/13 04:24:37;;;;;;;45.13;24.97;;;16.10;99.90;;;;;;4997287;28;20052;-76
2023/10/13 04:32:15;;;;;;;54.57;25.37;;;16.10;99.90;;;;;;5015033;28;20042;-75
2023/10/13 04:34:46;;;;;;;62.30;27.13;;;16.10;99.90;;;;;;5014691;28;20053;-77
2023/10/13 04:37:33;;;;;;;61.43;27.30;;;16.10;99.90;;;;;;5015047;28;20085;-75
2023/10/13 04:40:11;;;;;;;63.60;27.80;;;16.10;99.90;;;;;;5014919;28;20164;-78
2023/10/13 04:42:49;;;;;;;77.13;29.97;;;16.10;99.90;;;;;;5014888;28;20089;-75
2023/10/13 04:48:13;;;;;;;64.03;27.73;;;16.10;99.90;;;;;;5014649;28;20058;-76
2023/10/13 04:50:46;;;;;;;67.17;27.77;;;16.10;99.90;;;;;;5015085;28;20060;-76
2023/10/13 04:53:34;;;;;;;62.37;26.43;;;16.10;99.90;;;;;;5014352;28;20132;-73
2023/10/13 04:56:38;;;;;;;61.60;26.53;;;16.10;99.90;;;;;;5015174;28;20046;-75
2023/10/13 05:46:20;;;;;;;24.67;13.20;;;15.90;99.90;;;;;;5014133;28;20046;-77
2023/10/13 05:48:41;;;;;;;19.23;11.10;;;15.90;99.90;;;;;;5013216;28;20111;-75
2023/10/13 06:29:27;;;;;;;15.63;10.20;;;15.90;99.90;;;;;;5014047;28;20095;-76
2023/10/13 06:31:57;;;;;;;16.23;11.47;;;15.90;99.90;;;;;;4995827;28;20452;-76
2023/10/13 06:34:37;;;;;;;14.83;9.67;;;15.90;99.90;;;;;;5013431;28;20060;-76
2023/10/13 06:37:22;;;;;;;14.57;10.20;;;16.00;99.90;;;;;;5013474;28;20099;-77
2023/10/13 06:39:52;;;;;;;15.00;10.07;;;16.00;99.90;;;;;;4979904;28;20056;-77
2023/10/13 06:42:19;;;;;;;15.43;9.63;;;16.00;99.90;;;;;;5013365;28;20065;-75
2023/10/13 06:44:47;;;;;;;13.73;8.60;;;16.00;99.90;;;;;;5013255;28;20482;-77
2023/10/13 06:47:13;;;;;;;11.00;7.17;;;16.10;99.90;;;;;;5013558;28;20053;-77
2023/10/13 06:49:43;;;;;;;13.63;8.33;;;16.10;99.90;;;;;;4996505;28;20077;-76
2023/10/13 06:52:10;;;;;;;11.07;7.47;;;16.10;99.90;;;;;;5012950;28;20056;-75
2023/10/13 06:54:39;;;;;;;13.10;7.23;;;16.10;99.90;;;;;;5012908;28;20046;-75
2023/10/13 06:57:10;;;;;;;14.77;7.17;;;16.20;99.90;;;;;;5012933;28;20050;-76
2023/10/13 06:59:40;;;;;;;11.20;5.90;;;16.20;99.90;;;;;;5012917;28;20046;-76
2023/10/13 07:02:09;;;;;;;20.00;8.20;;;16.20;99.90;;;;;;5015886;28;20064;-76
2023/10/13 07:04:39;;;;;;;15.37;7.17;;;16.20;99.90;;;;;;5016447;28;20128;-76
2023/10/13 07:07:10;;;;;;;17.67;7.23;;;16.20;99.90;;;;;;5016752;28;20038;-77
2023/10/13 07:12:06;;;;;;;16.27;7.10;;;16.20;99.90;;;;;;5017213;28;20061;-76
2023/10/13 07:14:36;;;;;;;18.07;7.07;;;16.20;99.90;;;;;;5017160;28;20050;-76
2023/10/13 07:17:08;;;;;;;19.40;7.20;;;16.20;99.90;;;;;;5016339;28;20104;-76
2023/10/13 07:19:34;;;;;;;19.70;6.63;;;16.20;99.90;;;;;;5016338;28;20054;-76
2023/10/13 07:22:19;;;;;;;17.67;6.77;;;16.10;99.90;;;;;;4998754;28;20442;-75
2023/10/13 07:24:48;;;;;;;14.77;6.28;;;16.20;99.90;;;;;;5017044;28;20072;-75
2023/10/13 07:27:24;;;;;;;22.30;6.93;;;16.10;99.90;;;;;;4998813;28;20068;-75
2023/10/13 07:30:41;;;;;;;17.83;6.70;;;16.10;99.90;;;;;;5016715;28;20057;-73
2023/10/13 07:32:45;;;;;;;31.50;8.40;;;16.10;99.90;;;;;;5005717;28;20056;-75
2023/10/13 07:35:24;;;;;;;16.10;6.73;;;16.10;99.90;;;;;;4998618;28;20128;-75
2023/10/13 07:37:53;;;;;;;15.90;7.50;;;16.10;99.90;;;;;;4999399;28;20116;-75
2023/10/13 07:42:51;;;;;;;16.30;7.53;;;16.10;99.90;;;;;;4999033;28;20141;-75
2023/10/13 07:45:25;;;;;;;23.10;8.40;;;16.10;99.90;;;;;;5015770;28;20494;-74
2023/10/13 07:47:54;;;;;;;22.00;8.00;;;16.10;99.90;;;;;;5016538;28;20120;-75
2023/10/13 07:50:25;;;;;;;21.23;8.10;;;16.10;99.90;;;;;;4999146;28;20058;-75
2023/10/13 07:52:59;;;;;;;22.37;8.83;;;16.10;99.90;;;;;;5016202;28;20056;-75
2023/10/13 07:55:24;;;;;;;20.63;7.87;;;16.10;99.90;;;;;;5015850;28;20434;-74
2023/10/13 07:57:53;;;;;;;20.07;8.37;;;16.10;99.90;;;;;;5015501;28;20046;-74
2023/10/13 08:08:19;;;;;;;25.30;8.23;;;16.10;99.90;;;;;;5016170;28;20046;-75
2023/10/13 08:10:45;;;;;;;23.87;8.30;;;16.10;99.90;;;;;;4997438;28;20424;-75
2023/10/13 08:13:12;;;;;;;23.20;8.67;;;16.20;99.90;;;;;;4996556;28;20119;-75
2023/10/13 08:15:47;;;;;;;20.77;8.53;;;16.20;99.90;;;;;;4997962;28;20445;-77
2023/10/13 08:18:30;;;;;;;23.23;8.50;;;16.20;99.90;;;;;;5015207;28;20046;-76
2023/10/13 08:21:03;;;;;;;21.23;8.13;;;16.20;99.90;;;;;;5014617;28;20494;-76
2023/10/13 08:26:56;;;;;;;22.30;7.40;;;16.20;99.90;;;;;;5015063;28;20089;-75
2023/10/13 08:34:59;;;;;;;18.50;8.03;;;16.30;99.90;;;;;;5015661;28;20054;-76
2023/10/13 08:43:09;;;;;;;18.20;8.00;;;16.40;99.90;;;;;;5014954;28;20061;-76
2023/10/13 08:48:07;;;;;;;18.02;7.80;;;16.50;99.90;;;;;;5014672;28;20057;-76
2023/10/13 08:50:47;;;;;;;20.93;8.13;;;16.60;99.90;;;;;;4997116;28;20490;-76
2023/10/13 09:04:21;;;;;;;19.13;9.50;;;16.80;99.90;;;;;;4997553;28;20054;-76
2023/10/13 09:07:07;;;;;;;16.83;9.20;;;16.80;99.90;;;;;;5014895;28;20050;-75
2023/10/13 09:12:19;;;;;;;17.73;9.75;;;17.00;99.90;;;;;;4996673;28;20058;-75
2023/10/13 09:15:05;;;;;;;20.27;9.80;;;17.00;99.90;;;;;;5014185;28;20054;-73
2023/10/13 09:17:34;;;;;;;18.67;9.13;;;17.10;99.90;;;;;;4997136;28;20050;-79
2023/10/13 09:25:37;;;;;;;17.67;10.37;;;17.30;99.90;;;;;;5013815;28;20053;-76
2023/10/13 09:28:18;;;;;;;16.53;9.67;;;17.30;99.90;;;;;;4996270;28;20054;-77
2023/10/13 09:30:45;;;;;;;14.63;8.87;;;17.30;99.90;;;;;;5013859;28;20073;-76
2023/10/13 09:33:20;;;;;;;17.20;9.63;;;17.30;99.90;;;;;;5013819;28;20046;-73
2023/10/13 09:35:50;;;;;;;18.13;9.77;;;17.40;99.90;;;;;;5013754;28;20133;-71
2023/10/13 09:38:18;;;;;;;13.97;8.70;;;17.40;99.90;;;;;;5014071;28;20108;-70
2023/10/13 09:40:51;;;;;;;18.27;8.77;;;17.50;99.90;;;;;;4996293;28;20153;-72
2023/10/13 09:43:19;;;;;;;16.33;8.90;;;17.50;99.90;;;;;;5014001;28;20046;-78
2023/10/13 09:46:02;;;;;;;15.30;8.33;;;17.50;99.90;;;;;;5013571;28;20050;-80
2023/10/13 09:48:32;;;;;;;14.77;7.43;;;17.60;99.90;;;;;;5014037;28;20076;-76
2023/10/13 09:51:13;;;;;;;17.33;7.53;;;17.70;99.90;;;;;;4996411;28;20053;-78
2023/10/13 09:53:41;;;;;;;20.63;7.67;;;17.80;99.90;;;;;;4996201;28;20056;-76
2023/10/13 09:56:19;;;;;;;16.80;7.40;;;17.80;99.90;;;;;;5012396;28;20129;-75
2023/10/13 09:58:56;;;;;;;14.40;6.90;;;17.80;99.90;;;;;;5013689;28;20061;-75
2023/10/13 10:01:33;;;;;;;16.17;7.17;;;17.80;99.90;;;;;;5014338;28;20046;-75
2023/10/13 10:04:14;;;;;;;13.73;7.17;;;17.80;99.90;;;;;;5013565;28;20104;-75
2023/10/13 10:06:44;;;;;;;19.83;6.20;;;17.80;99.90;;;;;;5013353;28;20085;-75
2023/10/13 10:09:15;;;;;;;16.23;6.43;;;17.80;99.90;;;;;;4996462;28;20046;-75
2023/10/13 10:11:54;;;;;;;16.97;7.33;;;17.80;99.90;;;;;;5013597;28;20125;-80
2023/10/13 10:14:28;;;;;;;14.70;7.23;;;17.90;99.90;;;;;;4996327;28;20065;-76
2023/10/13 10:17:08;;;;;;;22.27;6.68;;;17.90;99.90;;;;;;5013803;28;20104;-72
2023/10/13 10:19:48;;;;;;;14.37;6.20;;;17.90;99.90;;;;;;5013254;28;20052;-76
2023/10/13 10:22:24;;;;;;;16.13;6.83;;;18.00;99.90;;;;;;5013795;28;20390;-75
2023/10/13 10:24:58;;;;;;;15.93;6.37;;;18.10;99.90;;;;;;5013904;28;20128;-79
2023/10/13 10:27:25;;;;;;;22.88;6.38;;;18.10;99.90;;;;;;4995600;28;20058;-75
2023/10/13 10:29:54;;;;;;;18.93;6.80;;;18.20;99.90;;;;;;5013572;28;20062;-73
2023/10/13 10:32:20;;;;;;;14.97;7.53;;;18.20;99.90;;;;;;5013982;28;20390;-79
2023/10/13 10:34:47;;;;;;;23.17;7.30;;;18.20;99.90;;;;;;4997109;28;20050;-78
2023/10/13 10:37:13;;;;;;;12.60;6.37;;;18.20;99.90;;;;;;5015865;28;20104;-74
2023/10/13 10:39:45;;;;;;;15.90;6.73;;;18.30;99.90;;;;;;5016133;28;20387;-81
2023/10/13 10:42:17;;;;;;;17.63;7.20;;;18.30;99.90;;;;;;5017220;28;20475;-76
2023/10/13 10:44:43;;;;;;;19.13;6.60;;;18.20;99.90;;;;;;5017025;28;20092;-78
2023/10/13 10:47:10;;;;;;;16.53;7.00;;;18.30;99.90;;;;;;4999552;28;20496;-78
2023/10/13 10:49:40;;;;;;;17.93;6.27;;;18.30;99.90;;;;;;4999814;28;20495;-79
2023/10/13 10:52:14;;;;;;;17.90;6.07;;;18.30;99.90;;;;;;5016803;28;20046;-78
2023/10/13 10:54:43;;;;;;;13.85;6.53;;;18.40;99.90;;;;;;4999639;28;20092;-78
2023/10/13 10:57:17;;;;;;;16.47;6.60;;;18.50;99.90;;;;;;5016965;28;20094;-79
2023/10/13 10:59:43;;;;;;;15.73;6.30;;;18.50;99.90;;;;;;4999339;28;20053;-79
2023/10/13 11:02:15;;;;;;;17.53;7.03;;;18.50;99.90;;;;;;4999071;28;20049;-80
2023/10/13 11:04:50;;;;;;;21.30;7.40;;;18.50;99.90;;;;;;5016606;28;20085;-78
2023/10/13 11:07:27;;;;;;;19.83;6.83;;;18.50;99.90;;;;;;5000009;28;20049;-84
2023/10/13 11:09:56;;;;;;;15.60;6.73;;;18.50;99.90;;;;;;5015818;28;20054;-82
2023/10/13 11:12:26;;;;;;;18.27;6.70;;;18.50;99.90;;;;;;4999022;28;20050;-84
2023/10/13 11:20:15;;;;;;;19.10;7.47;;;18.50;99.90;;;;;;4965165;28;20272;-78
2023/10/13 11:22:46;;;;;;;16.77;6.17;;;18.60;99.90;;;;;;4969467;28;20042;-75
2023/10/13 11:25:39;;;;;;;15.57;6.47;;;18.60;99.90;;;;;;4965712;28;20102;-82
2023/10/13 11:28:35;;;;;;;18.77;6.43;;;18.60;99.90;;;;;;4967001;28;20410;-81
2023/10/13 11:31:19;;;;;;;24.92;6.57;;;18.60;99.90;;;;;;4985427;28;20121;-83
2023/10/13 11:33:47;;;;;;;17.20;6.37;;;18.50;99.90;;;;;;4994441;28;20046;-80
2023/10/13 11:36:31;;;;;;;17.20;5.80;;;18.50;99.90;;;;;;4993374;28;20509;-82
2023/10/13 11:38:57;;;;;;;16.17;5.73;;;18.40;99.90;;;;;;4994303;28;20096;-81
2023/10/13 11:41:23;;;;;;;19.07;7.37;;;18.40;99.90;;;;;;4993329;28;20376;-79
2023/10/13 11:44:04;;;;;;;19.77;7.00;;;18.30;99.90;;;;;;4975259;28;20426;-81
2023/10/13 11:51:49;;;;;;;27.27;6.60;;;18.20;99.90;;;;;;4982451;28;20073;-79
2023/10/13 11:54:19;;;;;;;18.57;6.60;;;18.20;99.90;;;;;;4992762;28;20116;-81
2023/10/13 11:56:45;;;;;;;19.50;6.63;;;18.20;99.90;;;;;;4994182;28;20042;-79
2023/10/13 11:59:18;;;;;;;18.10;6.97;;;18.20;99.90;;;;;;4993600;28;20074;-76
2023/10/13 12:04:40;;;;;;;16.10;6.07;;;18.30;99.90;;;;;;4992509;28;20054;-78
2023/10/13 12:12:26;;;;;;;21.40;7.17;;;18.30;99.90;;;;;;4988065;28;20047;-80
2023/10/13 12:14:52;;;;;;;17.13;6.60;;;18.30;99.90;;;;;;4972881;28;20039;-80
2023/10/13 12:17:34;;;;;;;17.67;6.83;;;18.40;99.90;;;;;;4973416;28;20046;-80
2023/10/13 12:20:00;;;;;;;19.17;7.40;;;18.40;99.90;;;;;;4974046;28;20065;-80
2023/10/13 12:22:35;;;;;;;19.47;7.60;;;18.40;99.90;;;;;;4957082;28;20061;-83
2023/10/13 12:25:05;;;;;;;;;;;18.30;99.90;;;;;;4973602;28;20058;-80
2023/10/13 12:27:45;;;;;;;15.03;6.37;;;18.30;99.90;;;;;;4973893;28;19969;-79
2023/10/13 12:30:22;;;;;;;19.80;7.97;;;18.20;99.90;;;;;;4973260;28;20478;-78
2023/10/13 12:33:06;;;;;;;18.53;7.80;;;18.20;99.90;;;;;;4972711;28;20101;-81
2023/10/13 12:35:37;;;;;;;28.03;7.73;;;18.20;99.90;;;;;;4984903;28;20482;-80
2023/10/13 12:38:08;;;;;;;15.00;7.43;;;18.10;99.90;;;;;;4992705;28;20509;-78
2023/10/13 12:52:02;;;;;;;20.30;7.63;;;18.10;99.90;;;;;;4974293;28;20050;-82
2023/10/13 12:54:35;;;;;;;17.93;8.63;;;18.00;99.90;;;;;;4972588;28;20101;-79
2023/10/13 12:57:02;;;;;;;20.50;8.70;;;18.00;99.90;;;;;;4973366;28;20452;-83
2023/10/13 12:59:28;;;;;;;19.53;7.83;;;18.00;99.90;;;;;;4971516;28;20089;-80
2023/10/13 13:01:54;;;;;;;23.80;8.73;;;18.00;99.90;;;;;;4973390;28;20083;-78
2023/10/13 13:04:20;;;;;;;20.47;9.00;;;17.90;99.90;;;;;;4972444;28;20105;-78
2023/10/13 13:06:47;;;;;;;21.07;8.83;;;17.90;99.90;;;;;;4973607;28;20410;-82
2023/10/13 13:09:13;;;;;;;22.47;8.60;;;17.80;99.90;;;;;;4973290;28;20046;-81
2023/10/13 13:11:41;;;;;;;17.23;8.67;;;17.80;99.90;;;;;;4972582;28;20121;-82
2023/10/13 13:14:08;;;;;;;19.67;8.20;;;17.80;99.90;;;;;;4971722;28;20560;-80
2023/10/13 13:16:35;;;;;;;19.60;8.67;;;17.80;99.90;;;;;;4973646;28;20120;-81
2023/10/13 13:19:09;;;;;;;20.17;8.63;;;17.80;99.90;;;;;;4972499;28;20059;-83
2023/10/13 13:21:39;;;;;;;22.40;8.32;;;17.80;99.90;;;;;;4969084;28;20078;-82
2023/10/13 13:24:13;;;;;;;22.80;8.97;;;17.70;99.90;;;;;;4971369;28;20065;-79
2023/10/13 13:26:40;;;;;;;19.42;7.82;;;17.70;99.90;;;;;;4972568;28;20082;-83
2023/10/13 13:29:09;;;;;;;24.00;9.70;;;17.70;99.90;;;;;;4973006;28;20113;-80
2023/10/13 13:31:44;;;;;;;20.03;8.40;;;17.70;99.90;;;;;;4973139;28;20118;-82
2023/10/13 13:34:12;;;;;;;19.37;8.70;;;17.70;99.90;;;;;;4971951;28;20051;-81
2023/10/13 13:36:40;;;;;;;21.77;9.53;;;17.70;99.90;;;;;;4973181;28;20101;-84
2023/10/13 13:39:07;;;;;;;22.57;9.40;;;17.70;99.90;;;;;;4956527;28;20113;-77
2023/10/13 13:41:33;;;;;;;24.07;8.70;;;17.80;99.90;;;;;;4973992;28;20130;-77
2023/10/13 13:44:13;;;;;;;16.90;8.33;;;17.80;99.90;;;;;;4971468;28;20506;-77
2023/10/13 13:46:42;;;;;;;20.03;8.17;;;17.70;99.90;;;;;;4988772;28;20469;-77
2023/10/13 13:49:17;;;;;;;21.33;7.97;;;17.80;99.90;;;;;;4963204;28;20043;-77
2023/10/13 13:51:52;;;;;;;;;;;17.80;99.90;;;;;;4961333;28;20042;-80
2023/10/13 13:54:19;;;;;;;20.93;8.47;;;17.80;99.90;;;;;;4964442;28;19922;-79
2023/10/13 13:56:46;;;;;;;20.90;8.13;;;17.80;99.90;;;;;;4973649;28;20047;-79
2023/10/13 13:59:15;;;;;;;23.83;8.50;;;17.90;99.90;;;;;;4973363;28;20042;-75
2023/10/13 14:01:44;;;;;;;19.23;8.73;;;17.90;99.90;;;;;;4973925;28;20050;-77
2023/10/13 14:04:10;;;;;;;18.07;8.33;;;17.90;99.90;;;;;;4972492;28;20050;-79
2023/10/13 14:06:37;;;;;;;17.70;7.10;;;17.90;99.90;;;;;;4973070;28;20187;-76
2023/10/13 14:09:14;;;;;;;23.30;7.83;;;17.90;99.90;;;;;;4972953;28;20118;-76
2023/10/13 14:16:51;;;;;;;24.92;7.80;;;18.00;99.90;;;;;;4970034;28;20137;-76
2023/10/13 14:19:26;;;;;;;22.50;8.77;;;18.00;99.90;;;;;;4966572;28;20063;-78
2023/10/13 14:21:53;;;;;;;;;;;18.00;99.90;;;;;;4963758;28;20074;-78
2023/10/13 14:24:27;;;;;;;22.27;7.63;;;18.00;99.90;;;;;;4968117;28;19930;-75
2023/10/13 14:26:57;;;;;;;18.63;7.30;;;18.00;99.90;;;;;;4957319;29;20094;-85
2023/10/13 14:29:26;;;;;;;23.03;7.93;;;18.10;99.90;;;;;;4941418;29;20051;-83
2023/10/13 14:31:52;;;;;;;20.07;7.13;;;18.10;99.90;;;;;;4958175;28;20047;-79
2023/10/13 14:34:17;;;;;;;18.73;7.23;;;18.10;99.90;;;;;;4957399;28;20109;-81
2023/10/13 14:36:48;;;;;;;17.90;7.60;;;18.10;99.90;;;;;;4991159;28;20049;-79
2023/10/13 14:39:14;;;;;;;16.87;6.97;;;18.20;99.90;;;;;;4974431;28;20051;-74
2023/10/13 14:41:40;;;;;;;18.83;6.40;;;18.20;99.90;;;;;;4957233;29;20047;-78
2023/10/13 14:44:06;;;;;;;19.37;7.23;;;18.20;99.90;;;;;;4955951;29;20055;-78
2023/10/13 14:46:35;;;;;;;16.90;6.73;;;18.20;99.90;;;;;;4974349;28;20050;-79
2023/10/13 14:49:02;;;;;;;18.63;7.20;;;18.10;99.90;;;;;;4974723;28;20054;-77
2023/10/13 14:51:28;;;;;;;20.47;6.37;;;18.20;99.90;;;;;;4976417;28;20051;-77
2023/10/13 14:53:55;;;;;;;19.27;7.70;;;18.20;99.90;;;;;;4976563;28;20086;-76
2023/10/13 14:56:25;;;;;;;22.33;7.73;;;18.20;99.90;;;;;;4975582;28;20604;-73
2023/10/13 14:58:51;;;;;;;21.07;7.20;;;18.20;99.90;;;;;;4973750;28;20507;-74
2023/10/13 15:01:20;;;;;;;21.37;8.23;;;18.10;99.90;;;;;;4975349;28;20517;-73
2023/10/13 15:03:47;;;;;;;19.70;7.07;;;18.10;99.90;;;;;;4976956;28;20057;-73
2023/10/13 15:06:38;;;;;;;18.83;7.20;;;18.10;99.90;;;;;;4975290;28;20050;-74
2023/10/13 15:09:03;;;;;;;21.93;7.57;;;18.10;99.90;;;;;;4973805;28;20062;-76
2023/10/13 15:11:38;;;;;;;26.57;7.90;;;18.10;99.90;;;;;;4976419;28;20137;-78
2023/10/13 15:14:08;;;;;;;26.63;7.88;;;18.10;99.90;;;;;;4974893;28;20100;-76
2023/10/13 15:16:34;;;;;;;21.50;7.10;;;18.10;99.90;;;;;;4975322;28;20082;-76
2023/10/13 15:19:02;;;;;;;20.87;7.13;;;18.10;99.90;;;;;;4974115;28;20097;-76
2023/10/13 15:21:35;;;;;;;21.00;7.10;;;18.10;99.90;;;;;;4974543;28;20495;-76
2023/10/13 15:24:14;;;;;;;19.77;7.07;;;18.10;99.90;;;;;;4976218;28;20129;-74
2023/10/13 15:26:44;;;;;;;20.23;7.00;;;18.10;99.90;;;;;;4992881;28;20053;-75
2023/10/13 15:29:12;;;;;;;19.73;6.33;;;18.10;99.90;;;;;;4995726;28;20520;-75
2023/10/13 15:31:41;;;;;;;21.90;7.13;;;18.10;99.90;;;;;;4996061;28;20126;-84
2023/10/13 15:34:15;;;;;;;17.50;6.43;;;18.10;99.90;;;;;;4995766;28;20410;-79
2023/10/13 15:36:42;;;;;;;18.27;6.63;;;18.10;99.90;;;;;;4996279;28;20093;-83
2023/10/13 15:39:11;;;;;;;17.73;7.17;;;18.10;99.90;;;;;;4994742;28;20050;-84
2023/10/13 15:41:41;;;;;;;23.97;7.57;;;18.10;99.90;;;;;;4995933;28;20093;-83
2023/10/13 15:44:15;;;;;;;20.93;7.33;;;18.10;99.90;;;;;;4995788;28;20046;-85
2023/10/13 15:46:41;;;;;;;22.63;7.32;;;18.10;99.90;;;;;;4995958;28;20073;-85
2023/10/13 15:49:07;;;;;;;16.50;7.10;;;18.10;99.90;;;;;;4994887;28;20474;-84
2023/10/13 15:51:38;;;;;;;23.20;6.47;;;18.00;99.90;;;;;;4995962;28;20104;-85
2023/10/13 15:54:04;;;;;;;22.80;6.93;;;18.00;99.90;;;;;;4995578;28;20092;-82
2023/10/13 15:56:32;;;;;;;18.67;6.07;;;18.00;99.90;;;;;;4995589;28;20548;-81
2023/10/13 15:59:01;;;;;;;18.43;6.57;;;18.00;99.90;;;;;;4995409;28;20050;-81
2023/10/13 16:01:28;;;;;;;22.87;7.73;;;18.00;99.90;;;;;;4974469;28;20382;-75
2023/10/13 16:03:54;;;;;;;14.97;6.10;;;18.00;99.90;;;;;;4980498;28;20054;-87
2023/10/13 16:06:21;;;;;;;20.70;6.77;;;17.90;99.90;;;;;;4974534;28;20060;-80
2023/10/13 16:08:48;;;;;;;17.47;6.57;;;18.00;99.90;;;;;;4971557;28;20439;-81
2023/10/13 16:11:17;;;;;;;20.43;7.13;;;17.90;99.90;;;;;;4974875;28;20406;-86
2023/10/13 16:13:50;;;;;;;21.50;6.67;;;17.90;99.90;;;;;;4974144;28;20101;-83
2023/10/13 16:16:24;;;;;;;16.37;5.53;;;17.90;99.90;;;;;;4974124;28;20055;-81
2023/10/13 16:18:51;;;;;;;19.03;7.47;;;17.90;99.90;;;;;;4973152;28;20142;-86
2023/10/13 16:21:17;;;;;;;17.37;6.17;;;17.90;99.90;;;;;;4973906;28;20101;-87